createdAt,value
2023-01-05T00:00:41.031Z,0.70
2023-01-05T00:05:43.858Z,0.40
2023-01-05T00:11:04.992Z,0.70
2023-01-05T00:16:37.735Z,0.20
2023-01-05T00:21:58.836Z,0.20
2023-01-05T00:27:01.318Z,0.50
2023-01-05T00:32:04.277Z,0.57
2023-01-05T00:37:06.956Z,0.50
2023-01-05T00:42:09.406Z,0.50
2023-01-05T00:47:11.928Z,1.23
2023-01-05T00:52:14.139Z,0.57
2023-01-05T00:57:16.430Z,0.70
2023-01-05T01:02:18.784Z,0.40
2023-01-05T01:07:21.548Z,0.20
2023-01-05T01:12:23.581Z,0.20
2023-01-05T01:17:26.304Z,0.47
2023-01-05T01:22:28.383Z,0.27
2023-01-05T01:27:32.281Z,0.20
2023-01-05T01:32:36.370Z,0.30
2023-01-05T01:37:38.511Z,0.20
2023-01-05T01:42:41.411Z,0.10
2023-01-05T01:47:52.952Z,0.03
2023-01-05T01:53:02.748Z,0.20
2023-01-05T01:58:13.366Z,0.10
2023-01-05T02:03:16.842Z,0.23
2023-01-05T02:08:25.573Z,0.20
2023-01-05T02:14:05.396Z,0.10
2023-01-05T02:19:51.942Z,0.63
2023-01-05T02:25:18.312Z,0.10
2023-01-05T02:30:39.488Z,0.13
2023-01-05T02:36:26.520Z,0.10
2023-01-05T02:42:05.512Z,0.10
2023-01-05T02:47:28.205Z,0.10
2023-01-05T02:52:56.294Z,0.73
2023-01-05T02:58:10.849Z,1.23
2023-01-05T03:03:30.009Z,0.17
2023-01-05T03:08:38.925Z,0.00
2023-01-05T03:13:47.639Z,0.10
2023-01-05T03:19:15.888Z,0.00
2023-01-05T03:24:37.303Z,0.10
2023-01-05T03:29:58.138Z,0.00
2023-01-05T03:35:30.564Z,0.10
2023-01-05T03:40:38.516Z,0.03
2023-01-05T03:45:45.953Z,0.00
2023-01-05T03:50:55.873Z,0.20
2023-01-05T03:56:00.202Z,0.20
2023-01-05T04:01:03.544Z,0.33
2023-01-05T04:06:07.814Z,0.20
2023-01-05T04:11:18.457Z,0.30
2023-01-05T04:16:28.801Z,0.10
2023-01-05T04:21:34.045Z,0.50
2023-01-05T04:26:37.945Z,0.13
2023-01-05T04:31:40.088Z,0.10
2023-01-05T04:36:43.182Z,0.20
2023-01-05T04:41:50.656Z,0.10
2023-01-05T04:46:55.149Z,0.07
2023-01-05T04:51:57.899Z,0.00
2023-01-05T04:57:00.454Z,0.10
2023-01-05T05:02:04.086Z,0.30
2023-01-05T05:07:08.449Z,0.00
2023-01-05T05:12:10.636Z,0.10
2023-01-05T05:17:15.353Z,0.77
2023-01-05T05:22:18.629Z,0.10
2023-01-05T05:27:20.950Z,0.13
2023-01-05T05:32:23.134Z,0.00
2023-01-05T05:37:25.417Z,0.10
2023-01-05T05:42:27.479Z,0.17
2023-01-05T05:47:29.611Z,0.20
2023-01-05T05:52:31.708Z,0.10
2023-01-05T05:57:33.879Z,0.00
2023-01-05T06:02:36.356Z,0.20
2023-01-05T06:07:38.636Z,0.10
2023-01-05T06:12:40.629Z,0.37
2023-01-05T06:17:42.996Z,0.33
2023-01-05T06:22:45.297Z,0.50
2023-01-05T06:27:47.319Z,0.10
2023-01-05T06:32:49.292Z,1.60
2023-01-05T06:37:51.309Z,0.30
2023-01-05T06:42:53.391Z,0.20
2023-01-05T06:47:55.588Z,0.20
2023-01-05T06:52:58.179Z,0.30
2023-01-05T06:58:01.333Z,1.43
2023-01-05T07:03:03.829Z,2.37
2023-01-05T07:08:06.399Z,1.03
2023-01-05T07:13:08.533Z,1.23
2023-01-05T07:18:10.515Z,0.40
2023-01-05T07:23:12.749Z,1.67
2023-01-05T07:28:15.073Z,0.60
2023-01-05T07:33:17.042Z,0.87
2023-01-05T07:38:19.196Z,2.90
2023-01-05T07:43:21.652Z,1.90
2023-01-05T07:48:23.947Z,1.53
2023-01-05T07:53:25.943Z,3.03
2023-01-05T07:58:28.849Z,3.13
2023-01-05T08:03:30.941Z,1.63
2023-01-05T08:08:36.405Z,2.10
2023-01-05T08:13:56.922Z,1.23
2023-01-05T08:19:00.033Z,2.17
2023-01-05T08:24:02.366Z,2.47
2023-01-05T08:29:04.710Z,2.10
2023-01-05T08:34:07.015Z,2.60
2023-01-05T08:39:11.652Z,5.53
2023-01-05T08:44:14.906Z,2.77
2023-01-05T08:49:16.944Z,3.03
2023-01-05T08:54:18.984Z,6.67
2023-01-05T08:59:21.434Z,2.00
2023-01-05T09:04:24.809Z,2.07
2023-01-05T09:09:26.774Z,5.00
2023-01-05T09:14:29.028Z,2.57
2023-01-05T09:19:31.473Z,3.13
2023-01-05T09:24:33.547Z,6.33
2023-01-05T09:29:35.908Z,3.87
2023-01-05T09:34:38.080Z,5.77
2023-01-05T09:39:40.287Z,5.17
2023-01-05T09:44:56.904Z,5.20
2023-01-05T09:50:02.074Z,5.57
2023-01-05T09:55:27.688Z,4.00
2023-01-05T10:00:30.551Z,6.03
2023-01-05T10:05:37.949Z,5.47
2023-01-05T10:11:14.892Z,7.93
2023-01-05T10:16:18.281Z,6.03
2023-01-05T10:21:59.640Z,5.10
2023-01-05T10:27:28.318Z,3.37
2023-01-05T10:33:21.803Z,6.93
2023-01-05T10:39:12.807Z,4.93
2023-01-05T10:44:59.255Z,4.67
2023-01-05T10:50:04.759Z,6.77
2023-01-05T10:55:17.639Z,4.47
2023-01-05T11:00:38.353Z,6.17
2023-01-05T11:05:48.021Z,5.47
2023-01-05T11:11:25.977Z,5.83
2023-01-05T11:16:35.434Z,6.10
2023-01-05T11:21:45.488Z,5.53
2023-01-05T11:27:23.950Z,4.50
2023-01-05T11:32:26.307Z,6.43
2023-01-05T11:37:31.288Z,7.00
2023-01-05T11:42:36.636Z,4.53
2023-01-05T11:47:50.569Z,4.30
2023-01-05T11:53:01.486Z,3.77
2023-01-05T11:58:20.138Z,8.20
2023-01-05T12:03:46.466Z,5.50
2023-01-05T12:09:11.341Z,3.87
2023-01-05T12:14:30.211Z,5.93
2023-01-05T12:19:53.767Z,4.90
2023-01-05T12:25:16.979Z,7.00
2023-01-05T12:33:19.545Z,7.93
2023-01-05T12:37:13.792Z,36.70
2023-01-05T12:42:38.075Z,7.33
2023-01-05T12:48:04.630Z,8.43
2023-01-05T12:53:21.828Z,9.70
2023-01-05T12:58:36.951Z,7.13
2023-01-05T13:03:49.845Z,10.60
2023-01-05T13:09:13.399Z,7.20
2023-01-05T13:14:25.825Z,8.20
2023-01-05T13:19:50.348Z,7.93
2023-01-05T13:25:21.279Z,7.77
2023-01-05T13:30:32.379Z,5.60
2023-01-05T13:35:46.544Z,6.13
2023-01-05T13:41:29.973Z,6.40
2023-01-05T13:46:56.525Z,4.57
2023-01-05T13:52:04.033Z,10.03
2023-01-05T13:57:24.052Z,6.40
2023-01-05T14:02:26.202Z,6.37
2023-01-05T14:07:28.758Z,6.60
2023-01-05T14:12:49.263Z,6.70
2023-01-05T14:17:58.173Z,7.43
2023-01-05T14:23:04.044Z,5.77
2023-01-05T14:28:30.878Z,7.20
2023-01-05T14:33:33.693Z,8.83
2023-01-05T14:38:36.628Z,5.63
2023-01-05T14:43:39.427Z,6.30
2023-01-05T14:49:06.516Z,7.93
2023-01-05T14:54:11.278Z,7.73
2023-01-05T14:59:23.777Z,3.43
2023-01-05T15:04:35.868Z,5.30
2023-01-05T15:10:20.039Z,5.37
2023-01-05T15:15:46.770Z,4.57
2023-01-05T15:21:21.980Z,5.07
2023-01-05T15:26:50.133Z,3.93
2023-01-05T15:32:12.670Z,7.47
2023-01-05T15:37:39.392Z,7.07
2023-01-05T15:42:44.745Z,4.93
2023-01-05T15:47:48.088Z,7.77
2023-01-05T15:53:01.895Z,4.80
2023-01-05T15:58:15.584Z,7.90
2023-01-05T16:03:40.212Z,8.20
2023-01-05T16:08:49.240Z,4.20
2023-01-05T16:14:15.920Z,3.47
2023-01-05T16:19:24.929Z,4.00
2023-01-05T16:24:48.783Z,5.73
2023-01-05T16:29:51.075Z,7.77
2023-01-05T16:35:44.471Z,5.50
2023-01-05T16:40:46.401Z,5.30
2023-01-05T16:45:51.602Z,5.77
2023-01-05T16:50:56.956Z,7.13
2023-01-05T16:56:00.688Z,4.37
2023-01-05T17:01:15.958Z,5.47
2023-01-05T17:06:32.103Z,6.50
2023-01-05T17:11:38.754Z,8.67
2023-01-05T17:16:40.842Z,5.63
2023-01-05T17:21:50.630Z,5.53
2023-01-05T17:26:52.749Z,6.60
2023-01-05T17:31:55.537Z,4.43
2023-01-05T17:37:00.945Z,5.93
2023-01-05T17:42:23.739Z,4.40
2023-01-05T17:47:26.030Z,3.60
2023-01-05T17:52:28.166Z,6.13
2023-01-05T17:57:30.262Z,6.63
2023-01-05T18:02:32.746Z,4.47
2023-01-05T18:07:36.757Z,6.13
2023-01-05T18:12:39.082Z,5.37
2023-01-05T18:17:42.595Z,3.50
2023-01-05T18:22:45.010Z,6.10
2023-01-05T18:27:47.371Z,5.33
2023-01-05T18:32:49.377Z,14.70
2023-01-05T18:37:51.486Z,7.83
2023-01-05T18:42:54.046Z,3.53
2023-01-05T18:47:58.740Z,7.27
2023-01-05T18:53:00.816Z,2.57
2023-01-05T18:58:03.114Z,2.53
2023-01-05T19:03:05.350Z,2.97
2023-01-05T19:08:09.539Z,2.10
2023-01-05T19:13:11.748Z,1.63
2023-01-05T19:18:13.995Z,2.70
2023-01-05T19:23:16.032Z,1.90
2023-01-05T19:28:18.334Z,4.40
2023-01-05T19:33:20.367Z,3.47
2023-01-05T19:38:22.369Z,4.80
2023-01-05T19:43:24.377Z,1.40
2023-01-05T19:48:26.958Z,3.33
2023-01-05T19:53:29.716Z,3.30
2023-01-05T19:58:32.465Z,1.57
2023-01-05T20:03:35.253Z,1.47
2023-01-05T20:08:38.261Z,2.90
2023-01-05T20:13:41.061Z,4.07
2023-01-05T20:18:43.067Z,1.60
2023-01-05T20:23:45.177Z,1.83
2023-01-05T20:28:48.157Z,2.17
2023-01-05T20:33:56.046Z,2.53
2023-01-05T20:39:00.148Z,1.83
2023-01-05T20:44:02.885Z,1.60
2023-01-05T20:49:05.649Z,1.80
2023-01-05T20:54:10.308Z,2.40
2023-01-05T20:59:20.050Z,2.67
2023-01-05T21:04:23.142Z,1.60
2023-01-05T21:09:25.723Z,1.30
2023-01-05T21:14:27.882Z,1.60
2023-01-05T21:19:30.201Z,2.63
2023-01-05T21:24:32.253Z,1.70
2023-01-05T21:29:34.387Z,1.10
2023-01-05T21:34:36.903Z,1.03
2023-01-05T21:39:39.143Z,2.40
2023-01-05T21:44:41.481Z,1.13
2023-01-05T21:49:43.527Z,1.57
2023-01-05T21:55:08.735Z,1.10
2023-01-05T22:00:11.902Z,0.70
2023-01-05T22:05:14.046Z,1.00
2023-01-05T22:10:16.204Z,1.00
2023-01-05T22:15:19.543Z,1.00
2023-01-05T22:20:21.572Z,0.93
2023-01-05T22:25:23.796Z,1.50
2023-01-05T22:30:26.397Z,1.03
2023-01-05T22:35:28.807Z,0.90
2023-01-05T22:40:30.875Z,1.23
2023-01-05T22:45:33.062Z,0.90
2023-01-05T22:50:35.270Z,1.03
2023-01-05T22:55:38.046Z,1.20
2023-01-05T23:00:40.158Z,1.10
2023-01-05T23:05:42.213Z,1.73
2023-01-05T23:10:44.283Z,0.80
2023-01-05T23:15:46.312Z,1.90
2023-01-05T23:20:56.913Z,0.90
2023-01-05T23:25:59.652Z,0.93
2023-01-05T23:31:02.495Z,1.00
2023-01-05T23:36:05.877Z,1.70
2023-01-05T23:41:10.903Z,1.07
2023-01-05T23:46:17.432Z,2.07
2023-01-05T23:51:19.882Z,0.90
2023-01-05T23:56:29.169Z,1.20
